createdAt,value
2023-03-17T00:00:32.859Z,100351.31
2023-03-17T00:02:35.200Z,100361.50
2023-03-17T00:04:38.248Z,100340.69
2023-03-17T00:06:41.852Z,100389.19
2023-03-17T00:08:46.811Z,100360.59
2023-03-17T00:10:50.200Z,100377.28
2023-03-17T00:12:55.517Z,100338.00
2023-03-17T00:14:58.044Z,100317.16
2023-03-17T00:17:00.833Z,100306.22
2023-03-17T00:19:05.476Z,100337.09
2023-03-17T00:21:13.291Z,100304.59
2023-03-17T00:23:22.966Z,100351.25
2023-03-17T00:25:30.423Z,100343.75
2023-03-17T00:27:33.318Z,100291.94
2023-03-17T00:29:35.675Z,100372.13
2023-03-17T00:31:39.971Z,100349.66
2023-03-17T00:33:45.643Z,100347.81
2023-03-17T00:35:48.453Z,100319.53
2023-03-17T00:37:53.006Z,100327.91
2023-03-17T00:39:56.466Z,100349.69
2023-03-17T00:42:01.141Z,100293.75
2023-03-17T00:44:03.801Z,100286.97
2023-03-17T00:46:36.157Z,100387.66
2023-03-17T00:48:39.175Z,100376.00
2023-03-17T00:50:43.004Z,100269.28
2023-03-17T00:52:46.880Z,100293.53
2023-03-17T00:54:49.174Z,100267.03
2023-03-17T00:56:52.838Z,100248.81
2023-03-17T00:58:55.068Z,100335.56
2023-03-17T01:00:57.967Z,100320.59
2023-03-17T01:03:00.608Z,100383.31
2023-03-17T01:05:06.648Z,100338.31
2023-03-17T01:07:12.339Z,100390.06
2023-03-17T01:09:16.500Z,100266.38
2023-03-17T01:11:20.597Z,100263.22
2023-03-17T01:13:24.072Z,100314.84
2023-03-17T01:15:32.115Z,100354.19
2023-03-17T01:17:34.250Z,100359.09
2023-03-17T01:19:37.782Z,100295.66
2023-03-17T01:21:41.089Z,100353.28
2023-03-17T01:23:43.997Z,100328.28
2023-03-17T01:25:46.593Z,100369.25
2023-03-17T01:27:49.636Z,100330.84
2023-03-17T01:29:55.560Z,100271.50
2023-03-17T01:31:58.300Z,100260.72
2023-03-17T01:34:01.416Z,100234.88
2023-03-17T01:36:04.538Z,100295.63
2023-03-17T01:38:07.329Z,100307.34
2023-03-17T01:40:15.415Z,100286.50
2023-03-17T01:42:17.890Z,100264.97
2023-03-17T01:44:20.244Z,100189.13
2023-03-17T01:46:32.787Z,100323.41
2023-03-17T01:48:39.503Z,100268.28
2023-03-17T01:50:42.874Z,100250.72
2023-03-17T01:52:46.023Z,100283.22
2023-03-17T01:55:03.795Z,100286.47
2023-03-17T01:57:15.197Z,100313.81
2023-03-17T01:59:24.089Z,100259.38
2023-03-17T02:01:32.323Z,100247.63
2023-03-17T02:03:34.982Z,100213.47
2023-03-17T02:05:39.274Z,100165.81
2023-03-17T02:07:42.353Z,100250.84
2023-03-17T02:09:44.977Z,100250.06
2023-03-17T02:11:47.201Z,100232.41
2023-03-17T02:13:49.799Z,100228.19
2023-03-17T02:15:53.648Z,100247.28
2023-03-17T02:18:00.387Z,100215.47
2023-03-17T02:20:18.661Z,100277.97
2023-03-17T02:22:24.612Z,100207.88
2023-03-17T02:24:26.794Z,100276.94
2023-03-17T02:26:33.682Z,100217.72
2023-03-17T02:28:36.448Z,100159.34
2023-03-17T02:30:39.036Z,100227.75
2023-03-17T02:32:41.448Z,100251.13
2023-03-17T02:34:45.490Z,100233.59
2023-03-17T02:36:48.180Z,100267.94
2023-03-17T02:38:52.128Z,100239.50
2023-03-17T02:40:54.909Z,100224.63
2023-03-17T02:42:57.876Z,100275.31
2023-03-17T02:45:03.587Z,100261.94
2023-03-17T02:47:07.614Z,100257.84
2023-03-17T02:49:12.207Z,100176.13
2023-03-17T02:51:14.647Z,100168.66
2023-03-17T02:53:17.123Z,100201.31
2023-03-17T02:55:19.983Z,100215.34
2023-03-17T02:57:22.774Z,100203.03
2023-03-17T02:59:25.382Z,100225.53
2023-03-17T03:01:27.886Z,100242.16
2023-03-17T03:03:30.938Z,100247.28
2023-03-17T03:05:33.764Z,100243.16
2023-03-17T03:07:36.714Z,100250.00
2023-03-17T03:09:39.232Z,100245.81
2023-03-17T03:11:42.897Z,100270.78
2023-03-17T03:13:45.711Z,100259.13
2023-03-17T03:15:48.336Z,100264.00
2023-03-17T03:17:51.443Z,100287.41
2023-03-17T03:19:54.136Z,100247.41
2023-03-17T03:21:56.438Z,100293.28
2023-03-17T03:23:58.616Z,100254.31
2023-03-17T03:26:01.335Z,100226.75
2023-03-17T03:28:05.359Z,100282.59
2023-03-17T03:30:08.833Z,100160.81
2023-03-17T03:32:11.543Z,100296.75
2023-03-17T03:34:14.003Z,100215.78
2023-03-17T03:36:16.484Z,100296.78
2023-03-17T03:38:19.600Z,100231.72
2023-03-17T03:40:22.268Z,100238.41
2023-03-17T03:42:24.588Z,100214.06
2023-03-17T03:44:26.873Z,100248.19
2023-03-17T03:46:29.907Z,100256.59
2023-03-17T03:48:32.899Z,100278.16
2023-03-17T03:50:35.680Z,100195.38
2023-03-17T03:52:38.050Z,100224.63
2023-03-17T03:54:40.394Z,100220.25
2023-03-17T03:56:42.988Z,100277.75
2023-03-17T03:58:45.500Z,100206.72
2023-03-17T04:00:49.090Z,100189.16
2023-03-17T04:02:51.381Z,100257.50
2023-03-17T04:04:54.746Z,100209.19
2023-03-17T04:06:57.408Z,100213.25
2023-03-17T04:08:59.638Z,100204.09
2023-03-17T04:11:02.190Z,100204.16
2023-03-17T04:13:04.471Z,100212.28
2023-03-17T04:15:09.493Z,100253.13
2023-03-17T04:17:13.360Z,100219.75
2023-03-17T04:19:15.746Z,100179.78
2023-03-17T04:21:19.219Z,100196.44
2023-03-17T04:23:21.403Z,100144.88
2023-03-17T04:25:23.697Z,100178.31
2023-03-17T04:27:26.085Z,100183.38
2023-03-17T04:29:28.521Z,100202.63
2023-03-17T04:31:31.010Z,100156.78
2023-03-17T04:33:33.368Z,100187.63
2023-03-17T04:35:36.025Z,100246.78
2023-03-17T04:37:39.425Z,100184.31
2023-03-17T04:39:42.303Z,100178.50
2023-03-17T04:41:45.515Z,100211.91
2023-03-17T04:43:48.163Z,100186.13
2023-03-17T04:45:50.935Z,100250.44
2023-03-17T04:47:53.209Z,100226.31
2023-03-17T04:49:56.056Z,100210.50
2023-03-17T04:51:58.650Z,100158.00
2023-03-17T04:54:01.804Z,100246.38
2023-03-17T04:56:04.587Z,100265.63
2023-03-17T04:58:07.315Z,100183.03
2023-03-17T05:00:10.369Z,100158.06
2023-03-17T05:02:13.080Z,100229.75
2023-03-17T05:04:28.852Z,100248.94
2023-03-17T05:06:33.693Z,100157.28
2023-03-17T05:08:36.084Z,100236.34
2023-03-17T05:10:38.208Z,100218.81
2023-03-17T05:12:41.204Z,100251.28
2023-03-17T05:14:43.518Z,100203.72
2023-03-17T05:16:48.250Z,100136.09
2023-03-17T05:18:51.216Z,100206.00
2023-03-17T05:20:54.390Z,100196.69
2023-03-17T05:22:56.930Z,100279.06
2023-03-17T05:24:59.156Z,100243.22
2023-03-17T05:27:01.465Z,100202.06
2023-03-17T05:29:04.278Z,100232.94
2023-03-17T05:31:09.475Z,100194.25
2023-03-17T05:33:13.062Z,100249.06
2023-03-17T05:35:16.135Z,100180.47
2023-03-17T05:37:18.507Z,100213.59
2023-03-17T05:39:21.682Z,100209.38
2023-03-17T05:41:24.085Z,100230.75
2023-03-17T05:43:26.642Z,100145.66
2023-03-17T05:45:29.928Z,100231.31
2023-03-17T05:47:33.811Z,100228.41
2023-03-17T05:49:36.553Z,100179.03
2023-03-17T05:51:39.019Z,100259.66
2023-03-17T05:53:42.057Z,100226.91
2023-03-17T05:55:44.701Z,100215.19
2023-03-17T05:57:47.396Z,100206.53
2023-03-17T05:59:51.057Z,100273.97
2023-03-17T06:01:53.851Z,100217.22
2023-03-17T06:03:56.420Z,100185.59
2023-03-17T06:05:59.181Z,100190.56
2023-03-17T06:08:02.418Z,100269.56
2023-03-17T06:10:06.903Z,100199.34
2023-03-17T06:12:09.673Z,100204.78
2023-03-17T06:14:12.911Z,100263.69
2023-03-17T06:16:15.394Z,100250.28
2023-03-17T06:18:19.951Z,100216.69
2023-03-17T06:20:22.400Z,100251.50
2023-03-17T06:22:25.030Z,100193.63
2023-03-17T06:24:27.377Z,100250.69
2023-03-17T06:26:30.232Z,100268.63
2023-03-17T06:28:32.744Z,100213.16
2023-03-17T06:30:38.745Z,100214.56
2023-03-17T06:32:42.410Z,100295.78
2023-03-17T06:34:44.925Z,100230.66
2023-03-17T06:36:48.631Z,100257.66
2023-03-17T06:38:52.627Z,100224.06
2023-03-17T06:40:55.162Z,100238.75
2023-03-17T06:42:57.386Z,100268.41
2023-03-17T06:44:59.803Z,100237.44
2023-03-17T06:47:03.182Z,100251.97
2023-03-17T06:49:05.796Z,100239.03
2023-03-17T06:51:08.310Z,100269.41
2023-03-17T06:53:12.042Z,100206.69
2023-03-17T06:55:15.692Z,100216.63
2023-03-17T06:57:18.079Z,100251.13
2023-03-17T06:59:23.357Z,100233.16
2023-03-17T07:01:29.280Z,100296.91
2023-03-17T07:03:34.093Z,100282.22
2023-03-17T07:05:36.319Z,100254.88
2023-03-17T07:07:39.794Z,100282.59
2023-03-17T07:09:42.915Z,100295.53
2023-03-17T07:11:45.577Z,100315.84
2023-03-17T07:13:47.893Z,100226.25
2023-03-17T07:15:51.096Z,100240.44
2023-03-17T07:17:54.836Z,100238.50
2023-03-17T07:19:57.467Z,100189.81
2023-03-17T07:22:00.274Z,100210.06
2023-03-17T07:24:02.854Z,100303.22
2023-03-17T07:26:05.670Z,100256.41
2023-03-17T07:28:08.893Z,100260.69
2023-03-17T07:30:13.396Z,100243.13
2023-03-17T07:32:16.180Z,100259.66
2023-03-17T07:34:18.722Z,100215.56
2023-03-17T07:36:21.211Z,100241.41
2023-03-17T07:38:23.739Z,100262.69
2023-03-17T07:40:27.162Z,100267.13
2023-03-17T07:42:30.300Z,100274.09
2023-03-17T07:44:33.477Z,100243.53
2023-03-17T07:46:36.270Z,100256.22
2023-03-17T07:48:42.731Z,100264.41
2023-03-17T07:50:45.793Z,100194.72
2023-03-17T07:52:48.152Z,100203.00
2023-03-17T07:54:52.461Z,100208.00
2023-03-17T07:56:55.703Z,100243.38
2023-03-17T07:58:59.380Z,100243.84
2023-03-17T08:01:01.870Z,100235.94
2023-03-17T08:03:10.413Z,100170.63
2023-03-17T08:05:14.567Z,100212.00
2023-03-17T08:07:16.906Z,100219.09
2023-03-17T08:09:19.866Z,100159.44
2023-03-17T08:11:23.608Z,100145.00
2023-03-17T08:13:26.655Z,100221.84
2023-03-17T08:15:31.071Z,100168.22
2023-03-17T08:17:34.968Z,100230.66
2023-03-17T08:19:37.562Z,100258.66
2023-03-17T08:21:40.719Z,100172.09
2023-03-17T08:23:43.419Z,100239.19
2023-03-17T08:25:47.171Z,100223.94
2023-03-17T08:27:49.741Z,100236.84
2023-03-17T08:29:52.224Z,100203.56
2023-03-17T08:31:54.770Z,100215.34
2023-03-17T08:33:58.208Z,100161.38
2023-03-17T08:36:00.767Z,100235.94
2023-03-17T08:38:04.765Z,100232.06
2023-03-17T08:40:10.430Z,100224.34
2023-03-17T08:42:12.979Z,100178.22
2023-03-17T08:44:15.982Z,100231.91
2023-03-17T08:46:27.633Z,100215.88
2023-03-17T08:48:30.762Z,100212.94
2023-03-17T08:50:33.879Z,100202.97
2023-03-17T08:52:37.263Z,100203.66
2023-03-17T08:54:39.703Z,100180.69
2023-03-17T08:56:42.750Z,100196.19
2023-03-17T08:58:45.541Z,100175.81
2023-03-17T09:00:48.798Z,100185.34
2023-03-17T09:02:51.566Z,100237.88
2023-03-17T09:04:54.874Z,100168.50
2023-03-17T09:07:05.781Z,100179.47
2023-03-17T09:09:10.070Z,100201.38
2023-03-17T09:11:16.897Z,100166.25
2023-03-17T09:13:20.142Z,100163.06
2023-03-17T09:15:22.955Z,100156.16
2023-03-17T09:17:25.624Z,100168.44
2023-03-17T09:19:28.287Z,100168.78
2023-03-17T09:21:31.168Z,100151.97
2023-03-17T09:23:34.156Z,100142.31
2023-03-17T09:25:38.619Z,100191.28
2023-03-17T09:27:41.004Z,100107.28
2023-03-17T09:29:43.752Z,100170.66
2023-03-17T09:31:47.894Z,100177.56
2023-03-17T09:33:50.325Z,100155.56
2023-03-17T09:35:53.158Z,100147.34
2023-03-17T09:37:56.041Z,100170.84
2023-03-17T09:39:58.835Z,100161.97
2023-03-17T09:42:19.811Z,100165.22
2023-03-17T09:44:34.077Z,100203.28
2023-03-17T09:47:05.076Z,100204.84
2023-03-17T09:49:42.691Z,100204.19
2023-03-17T09:51:47.024Z,100163.63
2023-03-17T09:54:05.101Z,100149.91
2023-03-17T09:56:16.432Z,100163.94
2023-03-17T09:58:26.381Z,100182.72
2023-03-17T10:00:30.179Z,100181.78
2023-03-17T10:02:36.000Z,100167.31
2023-03-17T10:04:38.832Z,100156.69
2023-03-17T10:06:47.149Z,100201.13
2023-03-17T10:08:59.670Z,100165.41
2023-03-17T10:11:18.353Z,100195.13
2023-03-17T10:13:35.982Z,100190.56
2023-03-17T10:15:51.258Z,100161.72
2023-03-17T10:17:54.061Z,100153.78
2023-03-17T10:20:22.152Z,100131.66
2023-03-17T10:22:43.569Z,100182.25
2023-03-17T10:24:51.093Z,100106.66
2023-03-17T10:26:58.206Z,100131.81
2023-03-17T10:29:04.708Z,100132.28
2023-03-17T10:31:19.346Z,100090.97
2023-03-17T10:33:22.862Z,100053.56
2023-03-17T10:35:26.139Z,100083.84
2023-03-17T10:37:30.035Z,100105.00
2023-03-17T10:39:42.353Z,100145.50
2023-03-17T10:42:09.847Z,100139.81
2023-03-17T10:44:28.353Z,100135.19
2023-03-17T10:46:31.649Z,100122.94
2023-03-17T10:48:38.956Z,100098.91
2023-03-17T10:50:41.607Z,100160.72
2023-03-17T10:52:47.753Z,100130.81
2023-03-17T10:54:53.804Z,100090.78
2023-03-17T10:57:06.692Z,100127.06
2023-03-17T10:59:26.462Z,100125.31
2023-03-17T11:01:30.837Z,100140.44
2023-03-17T11:03:38.185Z,100126.22
2023-03-17T11:05:40.711Z,100161.19
2023-03-17T11:07:43.473Z,100107.41
2023-03-17T11:09:51.140Z,100112.88
2023-03-17T11:12:19.427Z,100093.91
2023-03-17T11:14:28.637Z,100114.34
2023-03-17T11:16:35.695Z,100076.66
2023-03-17T11:18:40.777Z,100106.69
2023-03-17T11:20:54.582Z,100080.47
2023-03-17T11:23:02.605Z,100150.59
2023-03-17T11:25:16.457Z,100045.66
2023-03-17T11:27:28.218Z,100120.22
2023-03-17T11:29:48.476Z,100130.38
2023-03-17T11:32:25.553Z,100072.84
2023-03-17T11:34:57.137Z,100128.00
2023-03-17T11:37:26.636Z,100126.34
2023-03-17T11:39:45.028Z,100066.63
2023-03-17T11:42:15.783Z,100091.88
2023-03-17T11:44:37.326Z,100121.81
2023-03-17T11:46:50.814Z,100106.38
2023-03-17T11:49:11.465Z,100053.56
2023-03-17T11:51:36.502Z,100119.56
2023-03-17T11:53:53.955Z,100109.91
2023-03-17T11:56:15.666Z,100083.59
2023-03-17T11:58:41.599Z,100101.63
2023-03-17T12:00:53.466Z,100064.50
2023-03-17T12:03:10.493Z,100078.19
2023-03-17T12:05:27.698Z,100039.63
2023-03-17T12:07:35.975Z,100093.06
2023-03-17T12:09:51.331Z,100035.47
2023-03-17T12:11:56.148Z,100035.44
2023-03-17T12:14:23.137Z,99993.97
2023-03-17T12:16:30.090Z,100084.34
2023-03-17T12:18:46.658Z,100081.53
2023-03-17T12:20:59.129Z,100054.41
2023-03-17T12:23:13.643Z,100067.97
2023-03-17T12:25:26.391Z,100042.28
2023-03-17T12:27:48.973Z,100045.50
2023-03-17T12:30:00.897Z,100054.22
2023-03-17T12:32:16.552Z,100005.88
2023-03-17T12:34:20.633Z,100065.88
2023-03-17T12:36:24.330Z,100019.44
2023-03-17T12:38:37.140Z,100002.31
2023-03-17T12:40:48.701Z,100057.91
2023-03-17T12:42:54.858Z,100056.94
2023-03-17T12:45:06.117Z,100051.78
2023-03-17T12:47:33.016Z,100054.47
2023-03-17T12:49:54.177Z,100011.22
2023-03-17T12:52:13.851Z,100042.75
2023-03-17T12:54:26.888Z,100015.84
2023-03-17T12:56:31.479Z,100016.34
2023-03-17T12:58:47.327Z,99980.03
2023-03-17T13:01:02.456Z,100010.81
2023-03-17T13:03:28.137Z,99959.66
2023-03-17T13:05:33.580Z,99960.94
2023-03-17T13:07:51.688Z,99989.66
2023-03-17T13:09:54.154Z,99979.44
2023-03-17T13:11:57.548Z,99984.06
2023-03-17T13:14:29.758Z,100019.25
2023-03-17T13:16:34.009Z,100016.84
2023-03-17T13:18:37.446Z,100006.94
2023-03-17T13:20:52.399Z,99967.66
2023-03-17T13:23:02.477Z,100004.91
2023-03-17T13:25:31.004Z,99998.28
2023-03-17T13:27:33.472Z,99986.78
2023-03-17T13:29:36.321Z,99989.22
2023-03-17T13:31:39.089Z,99951.44
2023-03-17T13:33:54.236Z,99956.13
2023-03-17T13:36:32.855Z,99949.63
2023-03-17T13:38:35.136Z,99969.38
2023-03-17T13:40:57.810Z,99935.63
2023-03-17T13:43:24.763Z,99951.69
2023-03-17T13:45:40.412Z,99960.44
2023-03-17T13:47:44.685Z,99928.88
2023-03-17T13:49:51.373Z,99920.75
2023-03-17T13:52:04.707Z,99856.47
2023-03-17T13:54:20.141Z,99912.53
2023-03-17T13:56:25.524Z,99896.34
2023-03-17T13:58:33.526Z,99910.69
2023-03-17T14:00:39.283Z,99948.34
2023-03-17T14:02:45.050Z,99883.47
2023-03-17T14:05:00.764Z,99953.53
2023-03-17T14:07:14.269Z,99912.59
2023-03-17T14:09:42.743Z,99926.91
2023-03-17T14:11:48.300Z,99903.97
2023-03-17T14:14:15.178Z,99886.56
2023-03-17T14:16:30.373Z,99909.16
2023-03-17T14:18:36.821Z,99894.88
2023-03-17T14:20:39.364Z,99893.28
2023-03-17T14:22:45.583Z,99907.78
2023-03-17T14:24:53.392Z,99897.06
2023-03-17T14:26:55.990Z,99836.19
2023-03-17T14:29:04.982Z,99873.03
2023-03-17T14:31:08.330Z,99881.34
2023-03-17T14:33:25.348Z,99904.16
2023-03-17T14:35:36.373Z,99877.63
2023-03-17T14:37:38.658Z,99851.94
2023-03-17T14:39:50.552Z,99865.84
2023-03-17T14:42:05.108Z,99854.75
2023-03-17T14:44:10.208Z,99810.09
2023-03-17T14:46:28.380Z,99851.81
2023-03-17T14:48:33.889Z,99893.53
2023-03-17T14:50:36.434Z,99792.34
2023-03-17T14:52:41.495Z,99851.59
2023-03-17T14:54:44.596Z,99776.53
2023-03-17T14:56:58.147Z,99830.25
2023-03-17T14:59:37.710Z,99802.47
2023-03-17T15:01:50.170Z,99827.84
2023-03-17T15:03:59.999Z,99855.94
2023-03-17T15:06:30.418Z,99882.34
2023-03-17T15:08:46.463Z,99827.50
2023-03-17T15:10:49.488Z,99839.53
2023-03-17T15:13:12.248Z,99857.59
2023-03-17T15:15:29.353Z,99791.69
2023-03-17T15:17:35.964Z,99810.25
2023-03-17T15:23:57.125Z,99846.38
2023-03-17T15:30:19.084Z,99763.31
2023-03-17T15:36:40.205Z,99853.31
2023-03-17T15:43:01.061Z,99809.78
2023-03-17T15:49:26.468Z,99792.25
2023-03-17T15:55:48.743Z,99819.44
2023-03-17T16:02:28.873Z,99853.16
2023-03-17T16:13:11.816Z,99813.66
2023-03-17T16:19:34.099Z,99802.19
2023-03-17T16:21:37.781Z,99798.19
2023-03-17T16:23:41.230Z,99841.84
2023-03-17T16:25:44.342Z,99814.41
2023-03-17T16:27:48.783Z,99848.59
2023-03-17T16:29:51.550Z,99865.50
2023-03-17T16:31:53.917Z,99823.09
2023-03-17T16:33:57.105Z,99808.41
2023-03-17T16:36:01.230Z,99852.22
2023-03-17T16:38:03.789Z,99777.75
2023-03-17T16:40:36.674Z,99760.25
2023-03-17T16:42:41.960Z,99760.31
2023-03-17T16:44:44.326Z,99816.56
2023-03-17T16:46:47.678Z,99829.59
2023-03-17T16:48:51.186Z,99829.22
2023-03-17T16:50:54.066Z,99816.38
2023-03-17T16:52:57.186Z,99827.78
2023-03-17T16:54:59.941Z,99823.28
2023-03-17T16:57:03.058Z,99855.81
2023-03-17T16:59:07.958Z,99764.38
2023-03-17T17:01:15.408Z,99826.94
2023-03-17T17:03:18.744Z,99822.88
2023-03-17T17:05:27.658Z,99789.16
2023-03-17T17:07:30.091Z,99785.78
2023-03-17T17:09:32.789Z,99814.91
2023-03-17T17:11:35.541Z,99792.31
2023-03-17T17:13:39.480Z,99814.34
2023-03-17T17:15:43.118Z,99799.75
2023-03-17T17:17:52.296Z,99751.09
2023-03-17T17:19:54.850Z,99816.13
2023-03-17T17:43:26.630Z,99810.66
2023-03-17T17:45:54.659Z,99871.13
2023-03-17T18:21:19.146Z,99798.91
2023-03-17T18:23:28.734Z,99812.09
2023-03-17T18:58:31.064Z,99785.19
2023-03-17T19:00:44.228Z,99801.69
2023-03-17T19:02:47.320Z,99861.19
2023-03-17T19:04:50.602Z,99777.66
2023-03-17T19:28:48.155Z,99788.22
2023-03-17T19:30:59.803Z,99750.78
2023-03-17T19:33:02.406Z,99752.16
2023-03-17T19:35:56.407Z,99829.97
2023-03-17T19:38:08.680Z,99781.78
2023-03-17T19:50:15.090Z,99803.22
2023-03-17T19:52:17.668Z,99739.53
2023-03-17T19:54:23.666Z,99708.97
2023-03-17T19:56:28.331Z,99769.69
2023-03-17T19:58:30.917Z,99783.06
2023-03-17T20:00:34.381Z,99798.69
2023-03-17T20:02:36.810Z,99786.34
2023-03-17T20:04:40.051Z,99810.94
2023-03-17T20:06:42.378Z,99805.34
2023-03-17T20:08:45.301Z,99799.00
2023-03-17T20:10:52.314Z,99740.13
2023-03-17T20:12:54.771Z,99759.44
2023-03-17T20:14:57.371Z,99789.31
2023-03-17T20:16:59.810Z,99773.09
2023-03-17T20:19:04.085Z,99767.78
2023-03-17T20:21:11.436Z,99760.72
2023-03-17T20:23:15.179Z,99758.88
2023-03-17T20:25:17.612Z,99794.22
2023-03-17T20:27:20.404Z,99754.75
2023-03-17T20:29:23.294Z,99814.66
2023-03-17T20:31:26.109Z,99815.03
2023-03-17T20:33:29.317Z,99787.00
2023-03-17T20:35:33.020Z,99807.63
2023-03-17T20:37:36.228Z,99779.31
2023-03-17T20:39:38.919Z,99751.19
2023-03-17T20:41:42.329Z,99789.03
2023-03-17T20:43:47.293Z,99766.94
2023-03-17T20:45:51.360Z,99821.97
2023-03-17T20:47:54.898Z,99831.34
2023-03-17T20:49:59.213Z,99816.22
2023-03-17T20:52:02.354Z,99783.44
2023-03-17T20:54:05.917Z,99780.31
2023-03-17T20:56:10.028Z,99770.16
2023-03-17T20:58:13.492Z,99797.78
2023-03-17T21:00:20.432Z,99778.66
2023-03-17T21:02:23.837Z,99753.13
2023-03-17T21:04:26.693Z,99781.97
2023-03-17T21:06:29.615Z,99768.75
2023-03-17T21:08:32.471Z,99769.88
2023-03-17T21:10:36.187Z,99727.25
2023-03-17T21:12:38.849Z,99753.84
2023-03-17T21:14:41.617Z,99765.59
2023-03-17T21:16:45.694Z,99784.72
2023-03-17T21:18:48.745Z,99816.88
2023-03-17T21:20:51.157Z,99791.25
2023-03-17T21:22:53.505Z,99819.84
2023-03-17T21:24:55.837Z,99807.38
2023-03-17T21:27:03.617Z,99825.78
2023-03-17T21:29:06.148Z,99746.88
2023-03-17T21:31:09.938Z,99761.69
2023-03-17T21:33:12.246Z,99809.75
2023-03-17T21:35:14.860Z,99796.00
2023-03-17T21:37:17.620Z,99774.63
2023-03-17T21:39:21.665Z,99754.94
2023-03-17T21:41:36.149Z,99781.31
2023-03-17T21:43:38.666Z,99744.78
2023-03-17T21:45:42.347Z,99824.59
2023-03-17T21:47:45.017Z,99800.88
2023-03-17T21:49:47.596Z,99772.69
2023-03-17T21:51:49.840Z,99760.97
2023-03-17T21:53:53.296Z,99764.19
2023-03-17T21:55:55.757Z,99774.47
2023-03-17T21:57:59.285Z,99784.44
2023-03-17T22:00:02.402Z,99828.28
2023-03-17T22:02:17.020Z,99820.66
2023-03-17T22:04:19.421Z,99754.94
2023-03-17T22:06:22.827Z,99781.22
2023-03-17T22:08:26.853Z,99814.16
2023-03-17T22:10:29.575Z,99785.53
2023-03-17T22:12:31.878Z,99785.72
2023-03-17T22:14:35.864Z,99791.69
2023-03-17T22:16:38.163Z,99780.22
2023-03-17T22:18:40.871Z,99819.13
2023-03-17T22:20:45.128Z,99744.13
2023-03-17T22:22:47.327Z,99791.38
2023-03-17T22:24:49.897Z,99771.63
2023-03-17T22:26:52.752Z,99794.16
2023-03-17T22:28:55.702Z,99778.66
2023-03-17T22:30:58.128Z,99782.41
2023-03-17T22:33:01.320Z,99790.84
2023-03-17T22:35:04.498Z,99739.81
2023-03-17T22:37:08.112Z,99745.75
2023-03-17T22:39:11.170Z,99783.50
2023-03-17T22:41:17.693Z,99784.97
2023-03-17T22:43:20.367Z,99761.88
2023-03-17T22:45:23.170Z,99770.16
2023-03-17T22:47:25.810Z,99786.63
2023-03-17T22:49:28.623Z,99762.28
2023-03-17T22:51:30.875Z,99759.50
2023-03-17T22:53:35.553Z,99753.09
2023-03-17T22:55:38.177Z,99780.22
2023-03-17T22:57:41.090Z,99754.00
2023-03-17T22:59:43.432Z,99770.75
2023-03-17T23:01:46.224Z,99737.09
2023-03-17T23:03:48.697Z,99775.13
2023-03-17T23:05:53.633Z,99752.09
2023-03-17T23:07:56.186Z,99783.00
2023-03-17T23:09:59.119Z,99761.53
2023-03-17T23:12:01.857Z,99698.97
2023-03-17T23:14:04.927Z,99730.50
2023-03-17T23:16:09.386Z,99781.16
2023-03-17T23:18:11.746Z,99757.66
2023-03-17T23:20:15.571Z,99747.78
2023-03-17T23:22:17.950Z,99798.22
2023-03-17T23:24:20.646Z,99774.81
2023-03-17T23:26:23.207Z,99736.00
2023-03-17T23:28:25.883Z,99770.75
2023-03-17T23:30:28.184Z,99770.09
2023-03-17T23:32:30.689Z,99784.53
2023-03-17T23:34:33.198Z,99764.19
2023-03-17T23:36:40.340Z,99763.75
2023-03-17T23:38:44.510Z,99811.47
2023-03-17T23:40:48.228Z,99792.78
2023-03-17T23:42:51.137Z,99779.09
2023-03-17T23:44:53.597Z,99812.28
2023-03-17T23:46:57.379Z,99754.22
2023-03-17T23:49:00.427Z,99733.88
2023-03-17T23:51:03.360Z,99749.69
2023-03-17T23:53:06.281Z,99739.94
2023-03-17T23:55:10.300Z,99754.78
2023-03-17T23:57:13.635Z,99757.34
2023-03-17T23:59:16.637Z,99755.09
